sensor_id;sensor_type;location;lat;lon;timestamp;P1;durP1;ratioP1;P2;durP2;ratioP2
19087;SDS011;9676;50.916;13.352;2023-04-01T00:00:23;9.43;;;8.63;;
19087;SDS011;9676;50.916;13.352;2023-04-01T00:03:13;9.50;;;8.70;;
19087;SDS011;9676;50.916;13.352;2023-04-01T00:06:02;9.23;;;8.60;;
19087;SDS011;9676;50.916;13.352;2023-04-01T00:08:54;9.20;;;8.50;;
19087;SDS011;9676;50.916;13.352;2023-04-01T00:11:43;9.20;;;8.60;;
19087;SDS011;9676;50.916;13.352;2023-04-01T00:14:32;9.30;;;8.60;;
19087;SDS011;9676;50.916;13.352;2023-04-01T00:17:24;9.20;;;8.60;;
19087;SDS011;9676;50.916;13.352;2023-04-01T00:20:13;9.40;;;8.70;;
19087;SDS011;9676;50.916;13.352;2023-04-01T00:23:03;9.70;;;8.90;;
19087;SDS011;9676;50.916;13.352;2023-04-01T00:25:54;9.40;;;8.60;;
19087;SDS011;9676;50.916;13.352;2023-04-01T00:28:44;8.90;;;8.40;;
19087;SDS011;9676;50.916;13.352;2023-04-01T00:31:34;9.10;;;8.50;;
19087;SDS011;9676;50.916;13.352;2023-04-01T00:34:24;9.00;;;8.40;;
19087;SDS011;9676;50.916;13.352;2023-04-01T00:37:13;9.03;;;8.40;;
19087;SDS011;9676;50.916;13.352;2023-04-01T00:40:03;9.10;;;8.50;;
19087;SDS011;9676;50.916;13.352;2023-04-01T00:42:56;9.57;;;8.67;;
19087;SDS011;9676;50.916;13.352;2023-04-01T00:45:47;9.50;;;8.60;;
19087;SDS011;9676;50.916;13.352;2023-04-01T00:48:38;9.43;;;8.73;;
19087;SDS011;9676;50.916;13.352;2023-04-01T00:51:31;9.30;;;8.50;;
19087;SDS011;9676;50.916;13.352;2023-04-01T00:54:22;8.90;;;8.30;;
19087;SDS011;9676;50.916;13.352;2023-04-01T00:57:15;9.20;;;8.50;;
19087;SDS011;9676;50.916;13.352;2023-04-01T01:00:10;9.50;;;8.60;;
19087;SDS011;9676;50.916;13.352;2023-04-01T01:03:02;9.10;;;8.50;;
19087;SDS011;9676;50.916;13.352;2023-04-01T01:05:55;9.37;;;8.40;;
19087;SDS011;9676;50.916;13.352;2023-04-01T01:09:02;9.00;;;8.40;;
19087;SDS011;9676;50.916;13.352;2023-04-01T01:12:03;9.00;;;8.40;;
19087;SDS011;9676;50.916;13.352;2023-04-01T01:15:02;9.10;;;8.50;;
19087;SDS011;9676;50.916;13.352;2023-04-01T01:18:02;9.23;;;8.53;;
19087;SDS011;9676;50.916;13.352;2023-04-01T01:21:21;9.37;;;8.60;;
19087;SDS011;9676;50.916;13.352;2023-04-01T01:24:55;9.20;;;8.50;;
19087;SDS011;9676;50.916;13.352;2023-04-01T01:28:02;9.50;;;8.70;;
19087;SDS011;9676;50.916;13.352;2023-04-01T01:31:10;9.10;;;8.50;;
19087;SDS011;9676;50.916;13.352;2023-04-01T01:34:11;9.50;;;8.80;;
19087;SDS011;9676;50.916;13.352;2023-04-01T01:37:10;9.20;;;8.50;;
19087;SDS011;9676;50.916;13.352;2023-04-01T01:40:04;9.30;;;8.60;;
19087;SDS011;9676;50.916;13.352;2023-04-01T01:42:58;9.30;;;8.60;;
19087;SDS011;9676;50.916;13.352;2023-04-01T01:45:52;9.00;;;8.40;;
19087;SDS011;9676;50.916;13.352;2023-04-01T01:48:44;9.03;;;8.40;;
19087;SDS011;9676;50.916;13.352;2023-04-01T01:51:36;10.47;;;9.43;;
19087;SDS011;9676;50.916;13.352;2023-04-01T01:54:30;9.00;;;8.40;;
19087;SDS011;9676;50.916;13.352;2023-04-01T01:57:20;9.47;;;8.40;;
19087;SDS011;9676;50.916;13.352;2023-04-01T02:00:17;9.23;;;8.60;;
19087;SDS011;9676;50.916;13.352;2023-04-01T02:03:08;9.20;;;8.50;;
19087;SDS011;9676;50.916;13.352;2023-04-01T02:05:59;9.33;;;8.63;;
19087;SDS011;9676;50.916;13.352;2023-04-01T02:08:53;9.13;;;8.43;;
19087;SDS011;9676;50.916;13.352;2023-04-01T02:11:47;9.00;;;8.40;;
19087;SDS011;9676;50.916;13.352;2023-04-01T02:14:41;9.10;;;8.50;;
19087;SDS011;9676;50.916;13.352;2023-04-01T02:17:37;9.37;;;8.67;;
19087;SDS011;9676;50.916;13.352;2023-04-01T02:20:30;9.30;;;8.60;;
19087;SDS011;9676;50.916;13.352;2023-04-01T02:23:20;9.30;;;8.60;;
19087;SDS011;9676;50.916;13.352;2023-04-01T02:26:10;9.30;;;8.60;;
19087;SDS011;9676;50.916;13.352;2023-04-01T02:29:02;9.50;;;8.70;;
19087;SDS011;9676;50.916;13.352;2023-04-01T02:31:55;9.30;;;8.60;;
19087;SDS011;9676;50.916;13.352;2023-04-01T02:34:45;9.30;;;8.60;;
19087;SDS011;9676;50.916;13.352;2023-04-01T02:37:35;9.37;;;8.60;;
19087;SDS011;9676;50.916;13.352;2023-04-01T02:40:26;9.50;;;8.70;;
19087;SDS011;9676;50.916;13.352;2023-04-01T02:43:16;9.30;;;8.60;;
19087;SDS011;9676;50.916;13.352;2023-04-01T02:46:08;9.33;;;8.67;;
19087;SDS011;9676;50.916;13.352;2023-04-01T02:48:58;9.93;;;9.17;;
19087;SDS011;9676;50.916;13.352;2023-04-01T02:51:49;9.27;;;8.50;;
19087;SDS011;9676;50.916;13.352;2023-04-01T02:54:39;8.90;;;8.20;;
19087;SDS011;9676;50.916;13.352;2023-04-01T02:57:28;9.00;;;8.40;;
19087;SDS011;9676;50.916;13.352;2023-04-01T03:00:18;9.50;;;8.80;;
19087;SDS011;9676;50.916;13.352;2023-04-01T03:03:09;9.50;;;8.70;;
19087;SDS011;9676;50.916;13.352;2023-04-01T03:06:04;9.37;;;8.67;;
19087;SDS011;9676;50.916;13.352;2023-04-01T03:08:54;9.30;;;8.63;;
19087;SDS011;9676;50.916;13.352;2023-04-01T03:11:44;9.53;;;8.67;;
19087;SDS011;9676;50.916;13.352;2023-04-01T03:14:33;9.13;;;8.43;;
19087;SDS011;9676;50.916;13.352;2023-04-01T03:17:22;9.30;;;8.60;;
19087;SDS011;9676;50.916;13.352;2023-04-01T03:20:15;10.80;;;8.77;;
19087;SDS011;9676;50.916;13.352;2023-04-01T03:23:04;8.90;;;8.30;;
19087;SDS011;9676;50.916;13.352;2023-04-01T03:25:54;9.30;;;8.60;;
19087;SDS011;9676;50.916;13.352;2023-04-01T03:28:43;9.10;;;8.50;;
19087;SDS011;9676;50.916;13.352;2023-04-01T03:31:32;9.37;;;8.67;;
19087;SDS011;9676;50.916;13.352;2023-04-01T03:34:22;9.10;;;8.40;;
19087;SDS011;9676;50.916;13.352;2023-04-01T03:37:13;9.43;;;8.70;;
19087;SDS011;9676;50.916;13.352;2023-04-01T03:40:03;9.23;;;8.53;;
19087;SDS011;9676;50.916;13.352;2023-04-01T03:42:54;9.30;;;8.50;;
19087;SDS011;9676;50.916;13.352;2023-04-01T03:45:44;9.10;;;8.50;;
19087;SDS011;9676;50.916;13.352;2023-04-01T03:48:34;9.30;;;8.60;;
19087;SDS011;9676;50.916;13.352;2023-04-01T03:51:24;9.40;;;8.70;;
19087;SDS011;9676;50.916;13.352;2023-04-01T03:54:14;9.30;;;8.60;;
19087;SDS011;9676;50.916;13.352;2023-04-01T03:57:04;9.70;;;8.70;;
19087;SDS011;9676;50.916;13.352;2023-04-01T03:59:54;9.10;;;8.50;;
19087;SDS011;9676;50.916;13.352;2023-04-01T04:02:44;9.37;;;8.67;;
19087;SDS011;9676;50.916;13.352;2023-04-01T04:05:45;9.47;;;8.77;;
19087;SDS011;9676;50.916;13.352;2023-04-01T04:08:37;9.17;;;8.50;;
19087;SDS011;9676;50.916;13.352;2023-04-01T04:11:28;9.30;;;8.60;;
19087;SDS011;9676;50.916;13.352;2023-04-01T04:14:20;9.27;;;8.57;;
19087;SDS011;9676;50.916;13.352;2023-04-01T04:17:10;9.50;;;8.63;;
19087;SDS011;9676;50.916;13.352;2023-04-01T04:20:04;9.40;;;8.60;;
19087;SDS011;9676;50.916;13.352;2023-04-01T04:22:55;9.00;;;8.40;;
19087;SDS011;9676;50.916;13.352;2023-04-01T04:25:52;9.30;;;8.50;;
19087;SDS011;9676;50.916;13.352;2023-04-01T04:28:45;9.27;;;8.57;;
19087;SDS011;9676;50.916;13.352;2023-04-01T04:31:36;9.40;;;8.70;;
19087;SDS011;9676;50.916;13.352;2023-04-01T04:34:26;9.10;;;8.40;;
19087;SDS011;9676;50.916;13.352;2023-04-01T04:37:16;9.03;;;8.37;;
19087;SDS011;9676;50.916;13.352;2023-04-01T04:40:06;9.13;;;8.53;;
19087;SDS011;9676;50.916;13.352;2023-04-01T04:42:56;9.27;;;8.57;;
19087;SDS011;9676;50.916;13.352;2023-04-01T04:45:48;9.37;;;8.57;;
19087;SDS011;9676;50.916;13.352;2023-04-01T04:48:37;9.00;;;8.40;;
19087;SDS011;9676;50.916;13.352;2023-04-01T04:51:27;9.10;;;8.50;;
19087;SDS011;9676;50.916;13.352;2023-04-01T04:54:16;9.27;;;8.60;;
19087;SDS011;9676;50.916;13.352;2023-04-01T04:57:15;9.20;;;8.50;;
19087;SDS011;9676;50.916;13.352;2023-04-01T05:00:12;8.93;;;8.33;;
19087;SDS011;9676;50.916;13.352;2023-04-01T05:03:25;9.00;;;8.40;;
19087;SDS011;9676;50.916;13.352;2023-04-01T05:06:15;9.00;;;8.40;;
19087;SDS011;9676;50.916;13.352;2023-04-01T05:09:08;9.00;;;8.40;;
19087;SDS011;9676;50.916;13.352;2023-04-01T05:11:58;9.23;;;8.50;;
19087;SDS011;9676;50.916;13.352;2023-04-01T05:14:54;9.30;;;8.60;;
19087;SDS011;9676;50.916;13.352;2023-04-01T05:17:44;9.17;;;8.57;;
19087;SDS011;9676;50.916;13.352;2023-04-01T05:20:35;9.20;;;8.50;;
19087;SDS011;9676;50.916;13.352;2023-04-01T05:23:25;9.10;;;8.50;;
19087;SDS011;9676;50.916;13.352;2023-04-01T05:26:15;9.40;;;8.50;;
19087;SDS011;9676;50.916;13.352;2023-04-01T05:29:04;9.30;;;8.53;;
19087;SDS011;9676;50.916;13.352;2023-04-01T05:31:54;9.10;;;8.50;;
19087;SDS011;9676;50.916;13.352;2023-04-01T05:34:44;9.10;;;8.50;;
19087;SDS011;9676;50.916;13.352;2023-04-01T05:37:35;9.20;;;8.40;;
19087;SDS011;9676;50.916;13.352;2023-04-01T05:40:25;9.07;;;8.40;;
19087;SDS011;9676;50.916;13.352;2023-04-01T05:43:14;9.23;;;8.53;;
19087;SDS011;9676;50.916;13.352;2023-04-01T05:46:06;9.23;;;8.53;;
19087;SDS011;9676;50.916;13.352;2023-04-01T05:49:04;9.30;;;8.60;;
19087;SDS011;9676;50.916;13.352;2023-04-01T05:51:53;9.33;;;8.63;;
19087;SDS011;9676;50.916;13.352;2023-04-01T05:54:44;9.50;;;8.70;;
19087;SDS011;9676;50.916;13.352;2023-04-01T05:57:34;9.23;;;8.57;;
19087;SDS011;9676;50.916;13.352;2023-04-01T06:00:24;9.30;;;8.50;;
19087;SDS011;9676;50.916;13.352;2023-04-01T06:03:14;9.20;;;8.50;;
19087;SDS011;9676;50.916;13.352;2023-04-01T06:06:10;9.47;;;8.70;;
19087;SDS011;9676;50.916;13.352;2023-04-01T06:09:07;9.10;;;8.40;;
19087;SDS011;9676;50.916;13.352;2023-04-01T06:12:27;9.00;;;8.30;;
19087;SDS011;9676;50.916;13.352;2023-04-01T06:15:36;9.53;;;8.70;;
19087;SDS011;9676;50.916;13.352;2023-04-01T06:18:42;9.40;;;8.60;;
19087;SDS011;9676;50.916;13.352;2023-04-01T06:21:50;9.40;;;8.60;;
19087;SDS011;9676;50.916;13.352;2023-04-01T06:25:28;9.60;;;8.80;;
19087;SDS011;9676;50.916;13.352;2023-04-01T06:32:01;9.37;;;8.67;;
19087;SDS011;9676;50.916;13.352;2023-04-01T06:35:32;9.30;;;8.60;;
19087;SDS011;9676;50.916;13.352;2023-04-01T06:38:36;9.07;;;8.40;;
19087;SDS011;9676;50.916;13.352;2023-04-01T06:45:46;9.03;;;8.43;;
19087;SDS011;9676;50.916;13.352;2023-04-01T06:49:06;9.23;;;8.60;;
19087;SDS011;9676;50.916;13.352;2023-04-01T06:52:55;10.17;;;8.90;;
19087;SDS011;9676;50.916;13.352;2023-04-01T06:56:09;9.30;;;8.60;;
19087;SDS011;9676;50.916;13.352;2023-04-01T06:59:12;9.40;;;8.70;;
19087;SDS011;9676;50.916;13.352;2023-04-01T07:02:13;9.53;;;8.73;;
19087;SDS011;9676;50.916;13.352;2023-04-01T07:05:13;9.30;;;8.50;;
19087;SDS011;9676;50.916;13.352;2023-04-01T07:08:04;9.57;;;8.80;;
19087;SDS011;9676;50.916;13.352;2023-04-01T07:11:00;10.30;;;9.40;;
19087;SDS011;9676;50.916;13.352;2023-04-01T07:14:17;9.80;;;8.90;;
19087;SDS011;9676;50.916;13.352;2023-04-01T07:17:14;10.93;;;8.40;;
19087;SDS011;9676;50.916;13.352;2023-04-01T07:20:10;9.40;;;8.70;;
19087;SDS011;9676;50.916;13.352;2023-04-01T07:23:07;9.33;;;8.60;;
19087;SDS011;9676;50.916;13.352;2023-04-01T07:26:16;9.60;;;8.80;;
19087;SDS011;9676;50.916;13.352;2023-04-01T07:29:27;9.07;;;8.40;;
19087;SDS011;9676;50.916;13.352;2023-04-01T07:32:23;9.30;;;8.60;;
19087;SDS011;9676;50.916;13.352;2023-04-01T07:35:23;9.07;;;8.40;;
19087;SDS011;9676;50.916;13.352;2023-04-01T07:38:21;9.30;;;8.50;;
19087;SDS011;9676;50.916;13.352;2023-04-01T07:41:23;9.10;;;8.40;;
19087;SDS011;9676;50.916;13.352;2023-04-01T07:44:25;9.20;;;8.50;;
19087;SDS011;9676;50.916;13.352;2023-04-01T07:47:20;8.80;;;8.20;;
19087;SDS011;9676;50.916;13.352;2023-04-01T07:50:25;9.17;;;8.47;;
19087;SDS011;9676;50.916;13.352;2023-04-01T07:53:18;9.10;;;8.40;;
19087;SDS011;9676;50.916;13.352;2023-04-01T07:56:16;9.00;;;8.40;;
19087;SDS011;9676;50.916;13.352;2023-04-01T07:59:16;9.37;;;8.60;;
19087;SDS011;9676;50.916;13.352;2023-04-01T08:02:39;8.90;;;8.30;;
19087;SDS011;9676;50.916;13.352;2023-04-01T08:05:47;8.90;;;8.30;;
19087;SDS011;9676;50.916;13.352;2023-04-01T08:08:49;9.13;;;8.43;;
19087;SDS011;9676;50.916;13.352;2023-04-01T08:12:09;8.80;;;8.20;;
19087;SDS011;9676;50.916;13.352;2023-04-01T08:15:22;8.80;;;8.20;;
19087;SDS011;9676;50.916;13.352;2023-04-01T08:18:19;9.27;;;8.50;;
19087;SDS011;9676;50.916;13.352;2023-04-01T08:21:20;8.80;;;8.20;;
19087;SDS011;9676;50.916;13.352;2023-04-01T08:24:16;8.80;;;8.20;;
19087;SDS011;9676;50.916;13.352;2023-04-01T08:27:24;8.80;;;8.20;;
19087;SDS011;9676;50.916;13.352;2023-04-01T08:30:21;8.90;;;8.30;;
19087;SDS011;9676;50.916;13.352;2023-04-01T08:33:14;9.13;;;8.30;;
19087;SDS011;9676;50.916;13.352;2023-04-01T08:36:15;9.10;;;8.43;;
19087;SDS011;9676;50.916;13.352;2023-04-01T08:39:17;9.27;;;8.47;;
19087;SDS011;9676;50.916;13.352;2023-04-01T08:42:18;9.37;;;8.57;;
19087;SDS011;9676;50.916;13.352;2023-04-01T08:45:41;9.13;;;8.33;;
19087;SDS011;9676;50.916;13.352;2023-04-01T08:48:50;8.70;;;8.10;;
19087;SDS011;9676;50.916;13.352;2023-04-01T08:55:27;9.00;;;8.30;;
19087;SDS011;9676;50.916;13.352;2023-04-01T08:58:37;9.00;;;8.30;;
19087;SDS011;9676;50.916;13.352;2023-04-01T09:09:31;9.23;;;8.43;;
19087;SDS011;9676;50.916;13.352;2023-04-01T09:13:19;8.80;;;8.20;;
19087;SDS011;9676;50.916;13.352;2023-04-01T09:16:28;8.90;;;8.10;;
19087;SDS011;9676;50.916;13.352;2023-04-01T09:19:42;9.13;;;8.40;;
19087;SDS011;9676;50.916;13.352;2023-04-01T09:22:50;8.97;;;8.33;;
19087;SDS011;9676;50.916;13.352;2023-04-01T09:26:11;8.97;;;8.30;;
19087;SDS011;9676;50.916;13.352;2023-04-01T09:29:25;8.90;;;8.27;;
19087;SDS011;9676;50.916;13.352;2023-04-01T09:36:07;8.60;;;8.00;;
19087;SDS011;9676;50.916;13.352;2023-04-01T09:39:26;8.80;;;8.20;;
19087;SDS011;9676;50.916;13.352;2023-04-01T09:42:34;9.50;;;8.60;;
19087;SDS011;9676;50.916;13.352;2023-04-01T09:46:09;9.23;;;8.53;;
19087;SDS011;9676;50.916;13.352;2023-04-01T09:52:38;8.77;;;8.07;;
19087;SDS011;9676;50.916;13.352;2023-04-01T10:03:20;9.20;;;8.50;;
19087;SDS011;9676;50.916;13.352;2023-04-01T10:14:38;8.80;;;8.20;;
19087;SDS011;9676;50.916;13.352;2023-04-01T10:21:44;9.00;;;8.30;;
19087;SDS011;9676;50.916;13.352;2023-04-01T10:25:18;9.00;;;8.30;;
19087;SDS011;9676;50.916;13.352;2023-04-01T10:29:24;8.60;;;8.00;;
19087;SDS011;9676;50.916;13.352;2023-04-01T10:36:48;8.90;;;8.20;;
19087;SDS011;9676;50.916;13.352;2023-04-01T10:39:59;8.90;;;8.20;;
19087;SDS011;9676;50.916;13.352;2023-04-01T10:55:07;8.67;;;7.97;;
19087;SDS011;9676;50.916;13.352;2023-04-01T10:59:01;8.80;;;8.10;;
19087;SDS011;9676;50.916;13.352;2023-04-01T11:22:08;8.60;;;7.90;;
19087;SDS011;9676;50.916;13.352;2023-04-01T11:25:29;8.50;;;7.90;;
19087;SDS011;9676;50.916;13.352;2023-04-01T11:32:59;8.50;;;7.80;;
19087;SDS011;9676;50.916;13.352;2023-04-01T11:36:16;8.90;;;8.10;;
19087;SDS011;9676;50.916;13.352;2023-04-01T11:39:24;8.90;;;8.10;;
19087;SDS011;9676;50.916;13.352;2023-04-01T11:42:43;8.80;;;8.10;;
19087;SDS011;9676;50.916;13.352;2023-04-01T11:46:01;8.80;;;8.10;;
19087;SDS011;9676;50.916;13.352;2023-04-01T11:49:02;8.87;;;8.17;;
19087;SDS011;9676;50.916;13.352;2023-04-01T11:56:02;8.70;;;8.10;;
19087;SDS011;9676;50.916;13.352;2023-04-01T11:59:11;8.90;;;8.20;;
19087;SDS011;9676;50.916;13.352;2023-04-01T12:02:34;8.90;;;8.20;;
19087;SDS011;9676;50.916;13.352;2023-04-01T12:05:42;9.07;;;8.37;;
19087;SDS011;9676;50.916;13.352;2023-04-01T12:08:41;8.90;;;8.30;;
19087;SDS011;9676;50.916;13.352;2023-04-01T12:11:44;8.90;;;8.20;;
19087;SDS011;9676;50.916;13.352;2023-04-01T12:14:59;8.80;;;8.10;;
19087;SDS011;9676;50.916;13.352;2023-04-01T12:18:03;8.80;;;8.20;;
19087;SDS011;9676;50.916;13.352;2023-04-01T12:21:03;8.83;;;8.17;;
19087;SDS011;9676;50.916;13.352;2023-04-01T12:24:14;8.70;;;8.10;;
19087;SDS011;9676;50.916;13.352;2023-04-01T12:27:38;9.00;;;8.30;;
19087;SDS011;9676;50.916;13.352;2023-04-01T12:30:46;8.73;;;8.13;;
19087;SDS011;9676;50.916;13.352;2023-04-01T12:33:55;9.00;;;8.30;;
19087;SDS011;9676;50.916;13.352;2023-04-01T12:37:17;8.90;;;8.20;;
19087;SDS011;9676;50.916;13.352;2023-04-01T12:40:20;8.80;;;8.10;;
19087;SDS011;9676;50.916;13.352;2023-04-01T12:43:27;8.90;;;8.20;;
19087;SDS011;9676;50.916;13.352;2023-04-01T12:47:00;8.90;;;8.20;;
19087;SDS011;9676;50.916;13.352;2023-04-01T12:50:21;9.30;;;8.50;;
19087;SDS011;9676;50.916;13.352;2023-04-01T12:53:29;9.10;;;8.40;;
19087;SDS011;9676;50.916;13.352;2023-04-01T12:56:41;9.00;;;8.30;;
19087;SDS011;9676;50.916;13.352;2023-04-01T12:59:46;8.90;;;8.20;;
19087;SDS011;9676;50.916;13.352;2023-04-01T13:03:05;9.10;;;8.40;;
19087;SDS011;9676;50.916;13.352;2023-04-01T13:06:20;8.60;;;7.90;;
19087;SDS011;9676;50.916;13.352;2023-04-01T13:09:24;8.70;;;8.10;;
19087;SDS011;9676;50.916;13.352;2023-04-01T13:12:33;8.97;;;8.27;;
19087;SDS011;9676;50.916;13.352;2023-04-01T13:15:35;9.00;;;8.33;;
19087;SDS011;9676;50.916;13.352;2023-04-01T13:18:32;9.00;;;8.30;;
19087;SDS011;9676;50.916;13.352;2023-04-01T13:21:31;8.70;;;8.10;;
19087;SDS011;9676;50.916;13.352;2023-04-01T13:24:31;8.70;;;8.10;;
19087;SDS011;9676;50.916;13.352;2023-04-01T13:27:33;8.70;;;8.10;;
19087;SDS011;9676;50.916;13.352;2023-04-01T13:30:29;9.03;;;8.30;;
19087;SDS011;9676;50.916;13.352;2023-04-01T13:33:27;8.60;;;8.00;;
19087;SDS011;9676;50.916;13.352;2023-04-01T13:36:27;9.10;;;8.40;;
19087;SDS011;9676;50.916;13.352;2023-04-01T13:39:27;8.90;;;8.30;;
19087;SDS011;9676;50.916;13.352;2023-04-01T13:42:33;8.93;;;8.27;;
19087;SDS011;9676;50.916;13.352;2023-04-01T13:45:27;9.20;;;8.50;;
19087;SDS011;9676;50.916;13.352;2023-04-01T13:48:32;8.80;;;8.20;;
19087;SDS011;9676;50.916;13.352;2023-04-01T13:51:56;8.90;;;8.20;;
19087;SDS011;9676;50.916;13.352;2023-04-01T13:58:27;8.77;;;8.17;;
19087;SDS011;9676;50.916;13.352;2023-04-01T14:01:39;8.67;;;8.07;;
19087;SDS011;9676;50.916;13.352;2023-04-01T14:04:34;9.00;;;8.30;;
19087;SDS011;9676;50.916;13.352;2023-04-01T14:07:41;8.97;;;8.27;;
19087;SDS011;9676;50.916;13.352;2023-04-01T14:10:42;8.80;;;8.20;;
19087;SDS011;9676;50.916;13.352;2023-04-01T14:13:37;8.80;;;8.20;;
19087;SDS011;9676;50.916;13.352;2023-04-01T14:20:06;8.73;;;8.13;;
19087;SDS011;9676;50.916;13.352;2023-04-01T14:30:42;8.70;;;8.10;;
19087;SDS011;9676;50.916;13.352;2023-04-01T14:33:42;8.80;;;8.20;;
19087;SDS011;9676;50.916;13.352;2023-04-01T14:36:50;8.90;;;8.30;;
19087;SDS011;9676;50.916;13.352;2023-04-01T14:40:13;8.90;;;8.30;;
19087;SDS011;9676;50.916;13.352;2023-04-01T14:43:16;9.00;;;8.30;;
19087;SDS011;9676;50.916;13.352;2023-04-01T14:50:02;9.00;;;8.30;;
19087;SDS011;9676;50.916;13.352;2023-04-01T14:52:57;8.80;;;8.20;;
19087;SDS011;9676;50.916;13.352;2023-04-01T14:56:01;9.40;;;8.60;;
19087;SDS011;9676;50.916;13.352;2023-04-01T14:58:51;8.87;;;8.27;;
19087;SDS011;9676;50.916;13.352;2023-04-01T15:01:47;8.80;;;8.20;;
19087;SDS011;9676;50.916;13.352;2023-04-01T15:04:52;9.07;;;8.37;;
19087;SDS011;9676;50.916;13.352;2023-04-01T15:11:12;8.70;;;8.10;;
19087;SDS011;9676;50.916;13.352;2023-04-01T15:14:23;8.90;;;8.23;;
19087;SDS011;9676;50.916;13.352;2023-04-01T15:21:11;9.60;;;8.80;;
19087;SDS011;9676;50.916;13.352;2023-04-01T15:24:10;9.47;;;8.70;;
19087;SDS011;9676;50.916;13.352;2023-04-01T15:27:11;9.23;;;8.40;;
19087;SDS011;9676;50.916;13.352;2023-04-01T15:30:21;9.10;;;8.40;;
19087;SDS011;9676;50.916;13.352;2023-04-01T15:37:04;8.80;;;8.20;;
19087;SDS011;9676;50.916;13.352;2023-04-01T15:40:05;9.20;;;8.50;;
19087;SDS011;9676;50.916;13.352;2023-04-01T15:43:11;9.10;;;8.40;;
19087;SDS011;9676;50.916;13.352;2023-04-01T15:46:19;8.80;;;8.20;;
19087;SDS011;9676;50.916;13.352;2023-04-01T15:49:28;9.10;;;8.40;;
19087;SDS011;9676;50.916;13.352;2023-04-01T15:52:33;8.90;;;8.30;;
19087;SDS011;9676;50.916;13.352;2023-04-01T15:55:31;9.10;;;8.40;;
19087;SDS011;9676;50.916;13.352;2023-04-01T15:58:35;9.10;;;8.40;;
19087;SDS011;9676;50.916;13.352;2023-04-01T16:01:38;9.20;;;8.40;;
19087;SDS011;9676;50.916;13.352;2023-04-01T16:04:40;9.20;;;8.50;;
19087;SDS011;9676;50.916;13.352;2023-04-01T16:07:50;8.90;;;8.30;;
19087;SDS011;9676;50.916;13.352;2023-04-01T16:11:05;9.00;;;8.40;;
19087;SDS011;9676;50.916;13.352;2023-04-01T16:14:15;9.03;;;8.33;;
19087;SDS011;9676;50.916;13.352;2023-04-01T16:17:19;9.10;;;8.40;;
19087;SDS011;9676;50.916;13.352;2023-04-01T16:20:23;9.20;;;8.50;;
19087;SDS011;9676;50.916;13.352;2023-04-01T16:23:33;8.90;;;8.30;;
19087;SDS011;9676;50.916;13.352;2023-04-01T16:26:27;9.10;;;8.40;;
19087;SDS011;9676;50.916;13.352;2023-04-01T16:29:27;9.10;;;8.40;;
19087;SDS011;9676;50.916;13.352;2023-04-01T16:32:28;9.07;;;8.43;;
19087;SDS011;9676;50.916;13.352;2023-04-01T16:35:29;8.90;;;8.30;;
19087;SDS011;9676;50.916;13.352;2023-04-01T16:38:35;8.90;;;8.30;;
19087;SDS011;9676;50.916;13.352;2023-04-01T16:41:31;9.10;;;8.40;;
19087;SDS011;9676;50.916;13.352;2023-04-01T16:44:24;9.03;;;8.33;;
19087;SDS011;9676;50.916;13.352;2023-04-01T16:47:15;8.80;;;8.20;;
19087;SDS011;9676;50.916;13.352;2023-04-01T16:50:13;9.30;;;8.60;;
19087;SDS011;9676;50.916;13.352;2023-04-01T16:53:08;9.13;;;8.53;;
19087;SDS011;9676;50.916;13.352;2023-04-01T16:56:08;9.30;;;8.60;;
19087;SDS011;9676;50.916;13.352;2023-04-01T16:59:02;9.30;;;8.50;;
19087;SDS011;9676;50.916;13.352;2023-04-01T17:01:57;9.20;;;8.50;;
19087;SDS011;9676;50.916;13.352;2023-04-01T17:04:58;9.30;;;8.60;;
19087;SDS011;9676;50.916;13.352;2023-04-01T17:07:55;9.50;;;8.70;;
19087;SDS011;9676;50.916;13.352;2023-04-01T17:10:57;9.43;;;8.73;;
19087;SDS011;9676;50.916;13.352;2023-04-01T17:13:59;9.30;;;8.60;;
19087;SDS011;9676;50.916;13.352;2023-04-01T17:17:13;9.10;;;8.40;;
19087;SDS011;9676;50.916;13.352;2023-04-01T17:20:16;9.30;;;8.60;;
19087;SDS011;9676;50.916;13.352;2023-04-01T17:23:30;9.00;;;8.40;;
19087;SDS011;9676;50.916;13.352;2023-04-01T17:26:28;9.40;;;8.70;;
19087;SDS011;9676;50.916;13.352;2023-04-01T17:29:29;9.30;;;8.60;;
19087;SDS011;9676;50.916;13.352;2023-04-01T17:32:34;9.30;;;8.60;;
19087;SDS011;9676;50.916;13.352;2023-04-01T17:35:38;9.10;;;8.50;;
19087;SDS011;9676;50.916;13.352;2023-04-01T17:38:40;9.47;;;8.67;;
19087;SDS011;9676;50.916;13.352;2023-04-01T17:41:47;9.40;;;8.63;;
19087;SDS011;9676;50.916;13.352;2023-04-01T17:44:50;9.60;;;8.80;;
19087;SDS011;9676;50.916;13.352;2023-04-01T17:47:49;9.30;;;8.60;;
19087;SDS011;9676;50.916;13.352;2023-04-01T17:50:54;9.30;;;8.60;;
19087;SDS011;9676;50.916;13.352;2023-04-01T17:54:05;9.40;;;8.70;;
19087;SDS011;9676;50.916;13.352;2023-04-01T17:57:17;9.40;;;8.70;;
19087;SDS011;9676;50.916;13.352;2023-04-01T18:00:24;9.47;;;8.77;;
19087;SDS011;9676;50.916;13.352;2023-04-01T18:03:44;9.30;;;8.60;;
19087;SDS011;9676;50.916;13.352;2023-04-01T18:07:04;9.50;;;8.80;;
19087;SDS011;9676;50.916;13.352;2023-04-01T18:10:34;9.50;;;8.60;;
19087;SDS011;9676;50.916;13.352;2023-04-01T18:13:51;9.50;;;8.70;;
19087;SDS011;9676;50.916;13.352;2023-04-01T18:17:17;9.43;;;8.70;;
19087;SDS011;9676;50.916;13.352;2023-04-01T18:23:35;9.37;;;8.67;;
19087;SDS011;9676;50.916;13.352;2023-04-01T18:26:39;9.50;;;8.80;;
19087;SDS011;9676;50.916;13.352;2023-04-01T18:29:37;9.53;;;8.73;;
19087;SDS011;9676;50.916;13.352;2023-04-01T18:32:42;9.40;;;8.70;;
19087;SDS011;9676;50.916;13.352;2023-04-01T18:35:45;9.67;;;8.87;;
19087;SDS011;9676;50.916;13.352;2023-04-01T18:38:40;9.30;;;8.60;;
19087;SDS011;9676;50.916;13.352;2023-04-01T18:41:40;9.37;;;8.67;;
19087;SDS011;9676;50.916;13.352;2023-04-01T18:44:43;9.40;;;8.70;;
19087;SDS011;9676;50.916;13.352;2023-04-01T18:47:41;9.40;;;8.60;;
19087;SDS011;9676;50.916;13.352;2023-04-01T18:50:36;9.47;;;8.77;;
19087;SDS011;9676;50.916;13.352;2023-04-01T18:53:30;9.50;;;8.70;;
19087;SDS011;9676;50.916;13.352;2023-04-01T18:56:28;9.17;;;8.53;;
19087;SDS011;9676;50.916;13.352;2023-04-01T18:59:21;9.73;;;8.83;;
19087;SDS011;9676;50.916;13.352;2023-04-01T19:02:20;9.30;;;8.60;;
19087;SDS011;9676;50.916;13.352;2023-04-01T19:05:18;9.97;;;9.13;;
19087;SDS011;9676;50.916;13.352;2023-04-01T19:08:22;10.93;;;9.97;;
19087;SDS011;9676;50.916;13.352;2023-04-01T19:11:18;10.20;;;9.30;;
19087;SDS011;9676;50.916;13.352;2023-04-01T19:14:17;10.30;;;9.40;;
19087;SDS011;9676;50.916;13.352;2023-04-01T19:17:16;9.90;;;9.10;;
19087;SDS011;9676;50.916;13.352;2023-04-01T19:20:20;10.43;;;9.53;;
19087;SDS011;9676;50.916;13.352;2023-04-01T19:26:42;10.73;;;9.63;;
19087;SDS011;9676;50.916;13.352;2023-04-01T19:29:42;10.43;;;9.53;;
19087;SDS011;9676;50.916;13.352;2023-04-01T19:32:49;10.10;;;9.20;;
19087;SDS011;9676;50.916;13.352;2023-04-01T19:35:52;10.43;;;9.43;;
19087;SDS011;9676;50.916;13.352;2023-04-01T19:38:52;10.47;;;9.47;;
19087;SDS011;9676;50.916;13.352;2023-04-01T19:41:46;10.50;;;9.60;;
19087;SDS011;9676;50.916;13.352;2023-04-01T19:44:48;10.40;;;9.40;;
19087;SDS011;9676;50.916;13.352;2023-04-01T19:47:57;10.10;;;9.20;;
19087;SDS011;9676;50.916;13.352;2023-04-01T19:50:57;9.50;;;8.80;;
19087;SDS011;9676;50.916;13.352;2023-04-01T19:53:56;9.50;;;8.80;;
19087;SDS011;9676;50.916;13.352;2023-04-01T19:56:57;9.43;;;8.73;;
19087;SDS011;9676;50.916;13.352;2023-04-01T19:59:56;9.80;;;9.00;;
19087;SDS011;9676;50.916;13.352;2023-04-01T20:02:55;9.60;;;8.90;;
19087;SDS011;9676;50.916;13.352;2023-04-01T20:05:59;9.77;;;9.00;;
19087;SDS011;9676;50.916;13.352;2023-04-01T20:09:04;9.23;;;8.63;;
19087;SDS011;9676;50.916;13.352;2023-04-01T20:12:31;9.30;;;8.70;;
19087;SDS011;9676;50.916;13.352;2023-04-01T20:15:32;9.20;;;8.60;;
19087;SDS011;9676;50.916;13.352;2023-04-01T20:18:25;9.30;;;8.60;;